^^
Your Local Weather - Clay, NY Station Historical Data
Daily Summary for May 9, 2017 Units:  Metric    English   Both
« Previous Day
Next Day »
Daily Weekly Monthly Yearly Custom
  High: Low: Average:
Temperature: 10.3 °C 2.1 °C 5.6 °C
Dew Point: 1.3 °C -1.9 °C 0.1 °C
Humidity: 86% 44% 69%
Wind Speed: 6.4km/h 0km/h 1.4km/h
Wind Gust: 11.3km/h - -
Wind- - WNW
Pressure: 1016.8 hPa 1013.1 hPa -
Precipitation: 0 mm    
Historical Graphs
 
 
Tabular Data for May 9, 2017
Time Temperature Dew Point Pressure Wind Wind Speed Wind Gust Humidity Rainfall Rate (Hourly) solar
00:00 4.3 °C 0.8 °C 1013.4 hPa Calm     78% 0 mm 0 W/m2
00:06 4.3 °C 0.8 °C 1013.4 hPa Calm     78% 0 mm 0 W/m2
00:12 4.2 °C 0.9 °C 1013.4 hPa Calm     79% 0 mm 0 W/m2
00:18 4.2 °C 0.9 °C 1013.4 hPa Calm     79% 0 mm 0 W/m2
00:24 4.2 °C 0.9 °C 1013.4 hPa Calm   1.6 km/h 79% 0 mm 0 W/m2
00:30 4.2 °C 0.9 °C 1013.4 hPa Calm     79% 0 mm 0 W/m2
00:36 4.2 °C 0.9 °C 1013.4 hPa Calm     79% 0 mm 0 W/m2
00:42 4.2 °C 0.8 °C 1013.4 hPa Calm     79% 0 mm 0 W/m2
00:48 4.2 °C 0.7 °C 1013.4 hPa Calm     78% 0 mm 0 W/m2
00:54 4.1 °C 0.6 °C 1013.4 hPa NW 1.6 km/h 3.2 km/h 78% 0 mm 0 W/m2
01:00 4.1 °C 0.6 °C 1013.4 hPa Calm     78% 0 mm 0 W/m2
01:06 4.1 °C 0.6 °C 1013.4 hPa Calm   3.2 km/h 78% 0 mm 0 W/m2
01:12 4.1 °C 0.6 °C 1013.4 hPa Calm     78% 0 mm 0 W/m2
01:18 4.1 °C 0.6 °C 1013.4 hPa Calm   4.8 km/h 78% 0 mm 0 W/m2
01:24 4.1 °C 0.7 °C 1013.4 hPa Calm     79% 0 mm 0 W/m2
01:30 4.1 °C 0.7 °C 1013.1 hPa Calm     79% 0 mm 0 W/m2
01:36 4.1 °C 0.7 °C 1013.1 hPa Calm   1.6 km/h 79% 0 mm 0 W/m2
01:42 3.9 °C 0.6 °C 1013.1 hPa Calm     79% 0 mm 0 W/m2
01:48 3.9 °C 0.6 °C 1013.1 hPa Calm     79% 0 mm 0 W/m2
01:54 3.8 °C 0.7 °C 1013.1 hPa Calm     80% 0 mm 0 W/m2
02:00 3.7 °C 0.6 °C 1013.1 hPa Calm     80% 0 mm 0 W/m2
02:06 3.7 °C 0.6 °C 1013.1 hPa Calm   1.6 km/h 80% 0 mm 0 W/m2
02:12 3.7 °C 0.7 °C 1013.1 hPa Calm     81% 0 mm 0 W/m2
02:18 3.6 °C 0.7 °C 1013.1 hPa Calm   1.6 km/h 81% 0 mm 0 W/m2
02:24 3.6 °C 0.7 °C 1013.1 hPa Calm     81% 0 mm 0 W/m2
02:30 3.6 °C 0.6 °C 1013.1 hPa Calm     81% 0 mm 0 W/m2
02:36 3.4 °C 0.7 °C 1013.1 hPa Calm     82% 0 mm 0 W/m2
02:42 3.4 °C 0.7 °C 1013.1 hPa Calm     82% 0 mm 0 W/m2
02:48 3.4 °C 0.6 °C 1013.1 hPa Calm     82% 0 mm 0 W/m2
02:54 3.3 °C 0.6 °C 1013.1 hPa Calm     82% 0 mm 0 W/m2
03:00 3.3 °C 0.7 °C 1013.1 hPa Calm     83% 0 mm 0 W/m2
03:06 3.3 °C 0.7 °C 1013.1 hPa Calm     83% 0 mm 0 W/m2
03:12 3.3 °C 0.7 °C 1013.1 hPa Calm     83% 0 mm 0 W/m2
03:18 3.3 °C 0.8 °C 1013.1 hPa Calm     84% 0 mm 0 W/m2
03:24 3.3 °C 0.8 °C 1013.1 hPa Calm     84% 0 mm 0 W/m2
03:30 3.3 °C 0.8 °C 1013.1 hPa Calm     84% 0 mm 0 W/m2
03:36 3.3 °C 0.8 °C 1013.1 hPa Calm     84% 0 mm 0 W/m2
03:42 3.3 °C 1 °C 1013.1 hPa Calm     85% 0 mm 0 W/m2
03:48 3.3 °C 0.8 °C 1013.1 hPa Calm     84% 0 mm 0 W/m2
03:54 3.3 °C 1 °C 1013.1 hPa Calm     85% 0 mm 0 W/m2
04:00 3.3 °C 1.1 °C 1013.1 hPa Calm     85% 0 mm 0 W/m2
04:06 3.4 °C 1.1 °C 1013.1 hPa Calm     85% 0 mm 0 W/m2
04:12 3.4 °C 1.3 °C 1013.1 hPa Calm     86% 0 mm 0 W/m2
04:18 3.4 °C 1.3 °C 1013.1 hPa Calm   1.6 km/h 86% 0 mm 0 W/m2
04:24 3.3 °C 1.2 °C 1013.1 hPa Calm     86% 0 mm 0 W/m2
04:30 3.3 °C 1.2 °C 1013.1 hPa Calm     86% 0 mm 0 W/m2
04:36 3.3 °C 1.2 °C 1013.1 hPa Calm     86% 0 mm 0 W/m2
04:42 3.3 °C 1.2 °C 1013.1 hPa Calm     86% 0 mm 0 W/m2
04:48 3.4 °C 1.3 °C 1013.1 hPa Calm     86% 0 mm 0 W/m2
04:54 3.4 °C 1.3 °C 1013.1 hPa Calm   6.4 km/h 86% 0 mm 0 W/m2
05:00 3.5 °C 1.1 °C 1013.1 hPa WSW 3.2 km/h 3.2 km/h 84% 0 mm 0 W/m2
05:06 3.6 °C 0.9 °C 1013.1 hPa WSW 3.2 km/h 8 km/h 83% 0 mm 0 W/m2
05:12 3.6 °C 0.9 °C 1013.1 hPa SW 3.2 km/h 4.8 km/h 83% 0 mm 0 W/m2
05:18 3.5 °C 0.9 °C 1013.1 hPa West 1.6 km/h 4.8 km/h 83% 0 mm 0 W/m2
05:24 3.4 °C 0.7 °C 1013.1 hPa SW 1.6 km/h 3.2 km/h 82% 0 mm 0 W/m2
05:30 3.3 °C 0.6 °C 1013.1 hPa WSW 1.6 km/h 3.2 km/h 82% 0 mm 0 W/m2
05:36 3.2 °C 0.4 °C 1013.1 hPa West 1.6 km/h 3.2 km/h 82% 0 mm 0 W/m2
05:42 3 °C 0.4 °C 1013.1 hPa WNW 1.6 km/h 1.6 km/h 83% 0 mm 0 W/m2
05:48 2.8 °C 0.2 °C 1013.1 hPa Calm   1.6 km/h 83% 0 mm 5 W/m2
05:54 2.8 °C 0.3 °C 1013.1 hPa Calm     84% 0 mm 7 W/m2
06:00 2.8 °C 0.3 °C 1013.1 hPa Calm     84% 0 mm 9 W/m2
06:06 2.8 °C 0.3 °C 1013.1 hPa Calm     84% 0 mm 11 W/m2
06:12 2.8 °C 0.6 °C 1013.1 hPa Calm     85% 0 mm 11 W/m2
06:18 2.9 °C 0.6 °C 1013.4 hPa Calm   1.6 km/h 85% 0 mm 16 W/m2
06:24 2.9 °C 0.7 °C 1013.4 hPa Calm     85% 0 mm 23 W/m2
06:30 2.9 °C 0.7 °C 1013.4 hPa Calm     85% 0 mm 28 W/m2
06:36 3 °C 0.7 °C 1013.8 hPa Calm     85% 0 mm 30 W/m2
06:42 3.1 °C 0.8 °C 1013.8 hPa Calm   1.6 km/h 85% 0 mm 35 W/m2
06:48 3.1 °C 0.8 °C 1013.8 hPa Calm   3.2 km/h 85% 0 mm 35 W/m2
06:54 3.2 °C 0.7 °C 1014.1 hPa WSW 1.6 km/h 6.4 km/h 84% 0 mm 33 W/m2
07:00 3.2 °C 0.7 °C 1014.1 hPa WSW 1.6 km/h 3.2 km/h 84% 0 mm 44 W/m2
07:06 3.2 °C 0.6 °C 1014.1 hPa WSW 3.2 km/h 3.2 km/h 83% 0 mm 53 W/m2
07:12 3.3 °C 0.7 °C 1014.1 hPa WSW 1.6 km/h 1.6 km/h 83% 0 mm 63 W/m2
07:18 3.4 °C 0.8 °C 1014.1 hPa Calm   1.6 km/h 83% 0 mm 72 W/m2
07:24 3.5 °C 0.7 °C 1014.1 hPa Calm   1.6 km/h 82% 0 mm 67 W/m2
07:30 3.6 °C 0.8 °C 1014.1 hPa Calm   3.2 km/h 82% 0 mm 63 W/m2
07:36 3.7 °C 0.7 °C 1014.4 hPa South 1.6 km/h 4.8 km/h 81% 0 mm 69 W/m2
07:42 3.7 °C 0.8 °C 1014.4 hPa SW 1.6 km/h 1.6 km/h 81% 0 mm 76 W/m2
07:48 3.8 °C 0.7 °C 1014.4 hPa Calm   4.8 km/h 80% 0 mm 84 W/m2
07:54 3.8 °C 0.5 °C 1014.4 hPa WSW 1.6 km/h 1.6 km/h 79% 0 mm 88 W/m2
08:00 3.9 °C 0.6 °C 1014.8 hPa Calm     79% 0 mm 91 W/m2
08:06 3.9 °C 0.4 °C 1014.8 hPa Calm   4.8 km/h 78% 0 mm 97 W/m2
08:12 4 °C 0.5 °C 1014.8 hPa WSW 1.6 km/h 1.6 km/h 78% 0 mm 105 W/m2
08:18 4.1 °C 0.6 °C 1014.8 hPa Calm   1.6 km/h 78% 0 mm 105 W/m2
08:24 4.2 °C 0.7 °C 1014.8 hPa Calm     78% 0 mm 105 W/m2
08:30 4.3 °C 0.6 °C 1014.8 hPa NW 1.6 km/h 1.6 km/h 77% 0 mm 95 W/m2
08:36 4.3 °C 0.6 °C 1014.8 hPa West 1.6 km/h 6.4 km/h 77% 0 mm 121 W/m2
08:42 4.3 °C 0.4 °C 1014.8 hPa West 1.6 km/h 1.6 km/h 76% 0 mm 141 W/m2
08:48 4.4 °C 0.8 °C 1014.8 hPa Calm   1.6 km/h 77% 0 mm 167 W/m2
08:54 4.6 °C 0.7 °C 1015.1 hPa Calm   1.6 km/h 76% 0 mm 165 W/m2
09:00 4.7 °C 0.6 °C 1015.1 hPa NW 1.6 km/h 1.6 km/h 75% 0 mm 169 W/m2
09:06 4.8 °C 0.7 °C 1015.1 hPa NW 1.6 km/h 1.6 km/h 75% 0 mm 165 W/m2
09:12 4.8 °C 0.9 °C 1015.1 hPa NW 1.6 km/h 1.6 km/h 76% 0 mm 176 W/m2
09:18 4.9 °C 0.7 °C 1015.1 hPa Calm   1.6 km/h 74% 0 mm 193 W/m2
09:24 4.9 °C 0.7 °C 1015.1 hPa NW 1.6 km/h 4.8 km/h 74% 0 mm 190 W/m2
09:30 4.9 °C 0.4 °C 1015.5 hPa WSW 1.6 km/h 1.6 km/h 73% 0 mm 178 W/m2
09:36 5 °C 0.4 °C 1015.5 hPa WSW 1.6 km/h 4.8 km/h 72% 0 mm 192 W/m2
09:42 5.1 °C 0.8 °C 1015.5 hPa SW 1.6 km/h 1.6 km/h 74% 0 mm 211 W/m2
09:48 5.2 °C 0.8 °C 1015.5 hPa SW 1.6 km/h 1.6 km/h 73% 0 mm 220 W/m2
09:54 5.3 °C 0.8 °C 1015.5 hPa SSW 1.6 km/h 4.8 km/h 73% 0 mm 262 W/m2
10:00 5.4 °C 0.6 °C 1015.5 hPa WSW 1.6 km/h 1.6 km/h 71% 0 mm 260 W/m2
10:06 5.6 °C 0.3 °C 1015.5 hPa WSW 1.6 km/h 4.8 km/h 69% 0 mm 274 W/m2
10:12 5.6 °C 0.4 °C 1015.5 hPa NW 1.6 km/h 3.2 km/h 69% 0 mm 218 W/m2
10:18 5.6 °C 0.4 °C 1015.5 hPa West 1.6 km/h 3.2 km/h 69% 0 mm 258 W/m2
10:24 5.7 °C 0.4 °C 1015.5 hPa WSW 1.6 km/h 3.2 km/h 69% 0 mm 304 W/m2
10:30 5.8 °C 0.6 °C 1015.5 hPa WSW 1.6 km/h 3.2 km/h 69% 0 mm 336 W/m2
10:36 5.9 °C 0.1 °C 1015.5 hPa West 1.6 km/h 4.8 km/h 66% 0 mm 322 W/m2
10:42 5.9 °C 0.1 °C 1015.5 hPa WSW 3.2 km/h 3.2 km/h 66% 0 mm 297 W/m2
10:48 6.1 °C 0.2 °C 1015.5 hPa WSW 3.2 km/h 4.8 km/h 66% 0 mm 309 W/m2
10:54 6.3 °C 0.4 °C 1015.5 hPa WSW 1.6 km/h 3.2 km/h 66% 0 mm 287 W/m2
11:00 6.4 °C 0.9 °C 1015.5 hPa WSW 1.6 km/h 1.6 km/h 68% 0 mm 318 W/m2
11:06 6.6 °C 0.4 °C 1015.8 hPa SSW 3.2 km/h 6.4 km/h 65% 0 mm 334 W/m2
11:12 6.6 °C 0.7 °C 1015.8 hPa NW 3.2 km/h 4.8 km/h 66% 0 mm 348 W/m2
11:18 6.7 °C 0.1 °C 1015.8 hPa West 1.6 km/h 4.8 km/h 63% 0 mm 364 W/m2
11:24 6.7 °C 0.4 °C 1015.8 hPa SW 3.2 km/h 8 km/h 64% 0 mm 366 W/m2
11:30 6.8 °C 0 °C 1015.5 hPa SW 3.2 km/h 4.8 km/h 62% 0 mm 425 W/m2
11:36 7 °C 0 °C 1015.5 hPa WSW 3.2 km/h 6.4 km/h 61% 0 mm 468 W/m2
11:42 7.1 °C 0.8 °C 1015.5 hPa WNW 1.6 km/h 3.2 km/h 64% 0 mm 462 W/m2
11:48 7.3 °C 0.4 °C 1015.5 hPa WSW 1.6 km/h 6.4 km/h 62% 0 mm 439 W/m2
11:56 7.6 °C 0.1 °C 1015.5 hPa NW 3.2 km/h 9.7 km/h 59% 0 mm 397 W/m2
12:02 7.6 °C 0.3 °C 1015.5 hPa NW 3.2 km/h 9.7 km/h 60% 0 mm 250 W/m2
12:08 7.4 °C -0.6 °C 1015.5 hPa WNW 1.6 km/h 9.7 km/h 57% 0 mm 272 W/m2
12:14 7.4 °C 0.2 °C 1015.8 hPa NNW 3.2 km/h 6.4 km/h 60% 0 mm 202 W/m2
12:20 7.3 °C -0.4 °C 1015.8 hPa NNW 3.2 km/h 3.2 km/h 58% 0 mm 169 W/m2
12:26 7.2 °C -0.3 °C 1015.8 hPa NNW 1.6 km/h 3.2 km/h 59% 0 mm 267 W/m2
12:32 7.5 °C -0.2 °C 1015.5 hPa WNW 1.6 km/h 3.2 km/h 58% 0 mm 388 W/m2
12:38 7.8 °C 0.6 °C 1015.5 hPa West 1.6 km/h 6.4 km/h 60% 0 mm 431 W/m2
12:44 8 °C 0.4 °C 1015.5 hPa NW 1.6 km/h 1.6 km/h 59% 0 mm 269 W/m2
12:50 8 °C -0.5 °C 1015.5 hPa NW 1.6 km/h 1.6 km/h 55% 0 mm 269 W/m2
12:56 7.9 °C 0.2 °C 1015.5 hPa West 1.6 km/h 4.8 km/h 58% 0 mm 288 W/m2
13:02 8.1 °C 0.5 °C 1015.5 hPa West 1.6 km/h 1.6 km/h 59% 0 mm 297 W/m2
13:08 8.2 °C 0.4 °C 1015.5 hPa NNW 1.6 km/h 6.4 km/h 58% 0 mm 257 W/m2
13:14 8.1 °C -0.2 °C 1015.5 hPa North 3.2 km/h 11.3 km/h 56% 0 mm 253 W/m2
13:20 8.1 °C 0.3 °C 1015.5 hPa NW 4.8 km/h 4.8 km/h 58% 0 mm 438 W/m2
13:26 8.7 °C -0.1 °C 1015.5 hPa NW 3.2 km/h 8 km/h 54% 0 mm 721 W/m2
13:32 8.9 °C 0.1 °C 1015.5 hPa WNW 4.8 km/h 4.8 km/h 54% 0 mm 526 W/m2
13:38 8.6 °C 0.1 °C 1015.1 hPa SW 3.2 km/h 4.8 km/h 55% 0 mm 643 W/m2
13:44 9.1 °C 0.2 °C 1015.1 hPa SW 1.6 km/h 3.2 km/h 54% 0 mm 675 W/m2
13:50 9.2 °C -0.4 °C 1015.1 hPa West 1.6 km/h 1.6 km/h 51% 0 mm 338 W/m2
13:56 8.8 °C -0.3 °C 1015.1 hPa WNW 1.6 km/h 3.2 km/h 53% 0 mm 186 W/m2
14:02 8.5 °C -0.6 °C 1015.1 hPa West 1.6 km/h 1.6 km/h 53% 0 mm 185 W/m2
14:08 8.7 °C 0.1 °C 1015.1 hPa West 1.6 km/h 4.8 km/h 55% 0 mm 308 W/m2
14:14 8.9 °C 0.1 °C 1015.1 hPa West 1.6 km/h 4.8 km/h 54% 0 mm 292 W/m2
14:20 8.7 °C -0.9 °C 1015.1 hPa SSW 3.2 km/h 3.2 km/h 51% 0 mm 200 W/m2
14:26 8.6 °C 0 °C 1015.1 hPa SSW 1.6 km/h 3.2 km/h 55% 0 mm 172 W/m2
14:32 8.8 °C -0.3 °C 1015.1 hPa Calm   1.6 km/h 53% 0 mm 188 W/m2
14:38 8.9 °C -0.9 °C 1015.1 hPa Calm   1.6 km/h 50% 0 mm 225 W/m2
14:44 8.9 °C -0.9 °C 1014.8 hPa WSW 1.6 km/h 1.6 km/h 50% 0 mm 272 W/m2
14:50 9.3 °C 0.4 °C 1014.8 hPa West 1.6 km/h 1.6 km/h 54% 0 mm 227 W/m2
14:56 9.4 °C -1.1 °C 1014.8 hPa Calm   1.6 km/h 48% 0 mm 359 W/m2
15:02 9.7 °C -1.1 °C 1014.8 hPa WNW 1.6 km/h 4.8 km/h 47% 0 mm 250 W/m2
15:08 9.7 °C -0.8 °C 1014.8 hPa Calm   4.8 km/h 48% 0 mm 246 W/m2
15:14 9.7 °C -0.6 °C 1014.8 hPa SW 1.6 km/h 4.8 km/h 49% 0 mm 406 W/m2
15:20 9.7 °C 0.6 °C 1014.4 hPa SSW 3.2 km/h 3.2 km/h 53% 0 mm 258 W/m2
15:26 9.6 °C 0.4 °C 1014.4 hPa South 3.2 km/h 3.2 km/h 53% 0 mm 367 W/m2
15:32 9.6 °C 0.5 °C 1014.4 hPa WSW 1.6 km/h 3.2 km/h 53% 0 mm 338 W/m2
15:38 9.7 °C -1.7 °C 1014.4 hPa WSW 1.6 km/h 3.2 km/h 45% 0 mm 294 W/m2
15:44 9.6 °C 0.2 °C 1014.4 hPa SSE 1.6 km/h 6.4 km/h 52% 0 mm 272 W/m2
15:50 9.8 °C -0.7 °C 1014.4 hPa West 1.6 km/h 1.6 km/h 48% 0 mm 352 W/m2
15:56 9.8 °C -1.9 °C 1014.4 hPa WSW 1.6 km/h 6.4 km/h 44% 0 mm 230 W/m2
16:02 9.6 °C -1.4 °C 1014.4 hPa WSW 3.2 km/h 3.2 km/h 46% 0 mm 232 W/m2
16:08 9.8 °C -1.3 °C 1014.4 hPa WSW 1.6 km/h 3.2 km/h 46% 0 mm 255 W/m2
16:14 9.9 °C -0.8 °C 1014.4 hPa NW 1.6 km/h 3.2 km/h 47% 0 mm 260 W/m2
16:20 9.8 °C -0.7 °C 1014.4 hPa NW 1.6 km/h 1.6 km/h 48% 0 mm 209 W/m2
16:26 9.8 °C -1 °C 1014.8 hPa North 3.2 km/h 4.8 km/h 47% 0 mm 207 W/m2
16:32 9.7 °C -0.8 °C 1014.8 hPa NNW 3.2 km/h 3.2 km/h 48% 0 mm 185 W/m2
16:38 9.8 °C 0.4 °C 1014.8 hPa NW 3.2 km/h 4.8 km/h 52% 0 mm 366 W/m2
16:44 10.1 °C -0.2 °C 1014.8 hPa NW 3.2 km/h 8 km/h 49% 0 mm 457 W/m2
16:50 10 °C -0.8 °C 1014.8 hPa NNW 4.8 km/h 4.8 km/h 47% 0 mm 396 W/m2
16:56 10.3 °C 0 °C 1014.8 hPa NW 3.2 km/h 4.8 km/h 49% 0 mm 332 W/m2
17:02 10 °C -0.8 °C 1014.8 hPa NNW 4.8 km/h 6.4 km/h 47% 0 mm 343 W/m2
17:08 10.1 °C -0.2 °C 1014.8 hPa North 6.4 km/h 11.3 km/h 49% 0 mm 403 W/m2
17:14 9.8 °C -0.4 °C 1014.8 hPa NNW 6.4 km/h 6.4 km/h 49% 0 mm 209 W/m2
17:20 9.4 °C -1.1 °C 1015.1 hPa NW 4.8 km/h 9.7 km/h 48% 0 mm 211 W/m2
17:26 9.1 °C -0.5 °C 1015.1 hPa NNW 6.4 km/h 9.7 km/h 51% 0 mm 188 W/m2
17:32 9.1 °C -0.8 °C 1015.1 hPa NNW 4.8 km/h 8 km/h 50% 0 mm 169 W/m2
17:38 9 °C -0.9 °C 1014.8 hPa NW 4.8 km/h 8 km/h 50% 0 mm 153 W/m2
17:44 8.8 °C -1.1 °C 1015.1 hPa NNW 3.2 km/h 4.8 km/h 50% 0 mm 144 W/m2
17:50 8.6 °C -0.9 °C 1015.1 hPa NNW 4.8 km/h 4.8 km/h 51% 0 mm 142 W/m2
17:56 8.5 °C -1.1 °C 1015.1 hPa NNW 4.8 km/h 4.8 km/h 51% 0 mm 167 W/m2
18:02 8.4 °C -1.1 °C 1015.1 hPa NW 3.2 km/h 11.3 km/h 51% 0 mm 146 W/m2
18:08 8.3 °C -1.3 °C 1015.1 hPa NW 4.8 km/h 11.3 km/h 51% 0 mm 118 W/m2
18:14 8.2 °C -1.4 °C 1015.1 hPa North 6.4 km/h 9.7 km/h 51% 0 mm 100 W/m2
18:20 8.1 °C -1.2 °C 1015.1 hPa North 4.8 km/h 8 km/h 52% 0 mm 77 W/m2
18:26 8 °C -1 °C 1015.5 hPa NW 4.8 km/h 11.3 km/h 53% 0 mm 83 W/m2
18:32 7.9 °C -0.8 °C 1015.5 hPa NW 3.2 km/h 4.8 km/h 54% 0 mm 90 W/m2
18:38 7.9 °C -0.3 °C 1015.1 hPa NW 1.6 km/h 4.8 km/h 56% 0 mm 109 W/m2
18:44 8 °C -1 °C 1015.1 hPa NW 1.6 km/h 4.8 km/h 53% 0 mm 114 W/m2
18:50 8.1 °C -0.4 °C 1015.8 hPa NW 1.6 km/h 3.2 km/h 55% 0 mm 113 W/m2
18:56 8 °C -1.3 °C 1015.8 hPa NW 1.6 km/h 3.2 km/h 52% 0 mm 97 W/m2
19:02 7.9 °C -1.4 °C 1015.8 hPa NW 1.6 km/h 6.4 km/h 52% 0 mm 76 W/m2
19:08 7.7 °C -1 °C 1015.8 hPa NW 1.6 km/h 6.4 km/h 54% 0 mm 65 W/m2
19:14 7.5 °C -1.2 °C 1015.8 hPa NW 1.6 km/h 3.2 km/h 54% 0 mm 63 W/m2
19:20 7.3 °C -1.2 °C 1015.8 hPa NNW 3.2 km/h 3.2 km/h 55% 0 mm 47 W/m2
19:26 7.2 °C -1.1 °C 1015.8 hPa WSW 1.6 km/h 6.4 km/h 56% 0 mm 40 W/m2
19:32 7.1 °C -1.1 °C 1015.8 hPa WSW 1.6 km/h 1.6 km/h 56% 0 mm 32 W/m2
19:38 6.9 °C -0.8 °C 1015.8 hPa Calm   1.6 km/h 58% 0 mm 39 W/m2
19:44 6.8 °C -0.7 °C 1015.8 hPa NNW 1.6 km/h 1.6 km/h 59% 0 mm 35 W/m2
19:50 6.5 °C -0.7 °C 1015.8 hPa NW 1.6 km/h 1.6 km/h 60% 0 mm 25 W/m2
19:56 6.3 °C -0.7 °C 1015.8 hPa NNW 3.2 km/h 6.4 km/h 61% 0 mm 12 W/m2
20:04 5.9 °C -0.8 °C 1015.8 hPa NW 3.2 km/h 6.4 km/h 62% 0 mm 7 W/m2
20:10 5.7 °C -0.8 °C 1015.8 hPa NW 3.2 km/h 3.2 km/h 63% 0 mm 0 W/m2
20:16 5.6 °C -0.9 °C 1016.1 hPa NNW 1.6 km/h 4.8 km/h 63% 0 mm 0 W/m2
20:22 5.5 °C -0.8 °C 1016.1 hPa NNW 1.6 km/h 1.6 km/h 64% 0 mm 0 W/m2
20:30 5.4 °C -0.9 °C 1016.1 hPa NW 1.6 km/h 6.4 km/h 64% 0 mm 0 W/m2
20:36 5.3 °C -0.8 °C 1016.1 hPa NW 3.2 km/h 6.4 km/h 65% 0 mm 0 W/m2
20:42 5.1 °C -0.7 °C 1016.1 hPa NNW 3.2 km/h 3.2 km/h 66% 0 mm 0 W/m2
20:50 4.9 °C -0.9 °C 1016.1 hPa WNW 1.6 km/h 1.6 km/h 66% 0 mm 0 W/m2
20:56 4.9 °C -0.7 °C 1016.1 hPa WNW 1.6 km/h 3.2 km/h 67% 0 mm 0 W/m2
21:02 4.8 °C -0.6 °C 1016.5 hPa Calm   4.8 km/h 68% 0 mm 0 W/m2
21:08 4.7 °C -0.9 °C 1016.5 hPa NW 3.2 km/h 4.8 km/h 67% 0 mm 0 W/m2
21:14 4.7 °C -0.7 °C 1016.5 hPa NNW 3.2 km/h 6.4 km/h 68% 0 mm 0 W/m2
21:20 4.6 °C -0.6 °C 1016.5 hPa NNW 1.6 km/h 1.6 km/h 69% 0 mm 0 W/m2
21:26 4.6 °C -0.8 °C 1016.5 hPa NNW 1.6 km/h 4.8 km/h 68% 0 mm 0 W/m2
21:32 4.4 °C -0.8 °C 1016.5 hPa NNW 1.6 km/h 1.6 km/h 69% 0 mm 0 W/m2
21:38 4.3 °C -0.8 °C 1016.8 hPa Calm   1.6 km/h 69% 0 mm 0 W/m2
21:44 4.2 °C -0.8 °C 1016.8 hPa Calm   3.2 km/h 70% 0 mm 0 W/m2
21:50 4.1 °C -0.7 °C 1016.5 hPa Calm     71% 0 mm 0 W/m2
21:56 3.9 °C -0.8 °C 1016.5 hPa Calm     71% 0 mm 0 W/m2
22:02 3.8 °C -0.8 °C 1016.5 hPa Calm   3.2 km/h 72% 0 mm 0 W/m2
22:08 3.7 °C -0.9 °C 1016.5 hPa Calm   3.2 km/h 72% 0 mm 0 W/m2
22:14 3.7 °C -0.7 °C 1016.8 hPa Calm     73% 0 mm 0 W/m2
22:20 3.6 °C -0.8 °C 1016.8 hPa Calm     73% 0 mm 0 W/m2
22:26 3.5 °C -0.7 °C 1016.8 hPa Calm   1.6 km/h 74% 0 mm 0 W/m2
22:32 3.4 °C -0.8 °C 1016.8 hPa Calm     74% 0 mm 0 W/m2
22:38 3.3 °C -0.9 °C 1016.8 hPa Calm     74% 0 mm 0 W/m2
22:44 3.2 °C -0.8 °C 1016.8 hPa Calm     75% 0 mm 0 W/m2
22:50 3.1 °C -0.9 °C 1016.8 hPa Calm     75% 0 mm 0 W/m2
22:56 2.9 °C -0.9 °C 1016.8 hPa Calm     76% 0 mm 0 W/m2
23:02 2.8 °C -1 °C 1016.5 hPa Calm     76% 0 mm 0 W/m2
23:08 2.7 °C -0.9 °C 1016.5 hPa Calm     77% 0 mm 0 W/m2
23:14 2.6 °C -0.8 °C 1016.5 hPa Calm     78% 0 mm 0 W/m2
23:20 2.5 °C -0.8 °C 1016.1 hPa Calm     79% 0 mm 0 W/m2
23:26 2.4 °C -0.7 °C 1016.5 hPa Calm     80% 0 mm 0 W/m2
23:32 2.3 °C -0.8 °C 1016.5 hPa Calm     80% 0 mm 0 W/m2
23:38 2.2 °C -0.6 °C 1016.5 hPa Calm   1.6 km/h 82% 0 mm 0 W/m2
23:44 2.2 °C -0.6 °C 1016.8 hPa Calm     82% 0 mm 0 W/m2
23:50 2.2 °C -0.6 °C 1016.8 hPa Calm     82% 0 mm 0 W/m2
23:56 2.1 °C -0.5 °C 1016.8 hPa Calm     83% 0 mm 0 W/m2
Country Meadow, Clay, NY, USA
Compliments of Weather Underground - 2 mb